Sioux City, IA (51101)

5:13 PM CST on February 09, 2016 (GMT -0600)
NW South Sioux City | | Change Station
CLOSE
Current Station
Personal Weather Station
Location: South Sioux City, NE
Elevation: 1093 ft
Nearby Weather Stations

Elev 1093 ft 42.49 °N, 96.42 °W | Updated 14 minutes ago

Clear
Clear
24.4 °F
Feels Like 15 °F
N
8.3
Wind Variable Wind from NW

Today
High -- | Low -- °F
--% Chance of Precip.
Yesterday
High -- | Low -- °F
Precip. -- in
Pressure 30.30 in
Visibility 10.0 miles
Clouds Clear
Windchill 15 °F
Dew Point 15 °F
Humidity 67%
Rainfall 0.00 in
Snow Depth Not available.
7:30 AM 5:49 PM
New Moon, 2% visible
METAR KSUX 092252Z 33012KT 10SM CLR M04/M11 A3025 RMK AO2 SLP261 T10391106
Pressure 30.30 in
Visibility 10.0 miles
Clouds Clear
Windchill 15 °F
Dew Point 15 °F
Humidity 67%
Rainfall 0.00 in
Snow Depth Not available.
7:30 AM 5:49 PM
New Moon, 2% visible
METAR KSUX 092252Z 33012KT 10SM CLR M04/M11 A3025 RMK AO2 SLP261 T10391106

10-Day Weather Forecast

Almanac

Astronomy

Feb. 09, 2016 Rise Set
Actual Time
Civil Twilight
Nautical Twilight
Astronomical Twilight
Moon
Length of Visible Light
Length of Day
Tomorrow will be .
, % of the Moon is Illuminated

Today's Extremes

State Highs State Lows

Community

WunderPhotos

Upload Photos

1,891,728 photos uploaded!

WunderBlog® & News

Nearby

Air Quality

  Air Quality AQ Index Pollutant
Not available.

Snow Depth

Station Depth Elevation

Earthquake Activity

City Distance Mag. Time & Date
Minimum magnitude displayed is 2.5.

Coastal Water Temperatures

Place Temperature

Stations

Nearby Weather Stations

Station Location Temp. Windchill Dew Point Humidity Wind Precip. Elev Updated Type
                   

Watches & Warnings

There are currently no watches in effect.